createdAt,value
2018-05-09T00:00:28.972Z,16.43
2018-05-09T00:01:38.691Z,16.37
2018-05-09T00:02:48.667Z,16.28
2018-05-09T00:03:58.383Z,16.37
2018-05-09T00:05:08.347Z,16.31
2018-05-09T00:06:18.506Z,16.31
2018-05-09T00:07:28.495Z,16.34
2018-05-09T00:08:38.462Z,16.34
2018-05-09T00:09:48.437Z,16.21
2018-05-09T00:10:58.403Z,16.32
2018-05-09T00:12:08.618Z,16.28
2018-05-09T00:13:18.336Z,16.22
2018-05-09T00:14:28.315Z,16.24
2018-05-09T00:15:38.028Z,16.22
2018-05-09T00:16:47.745Z,16.24
2018-05-09T00:17:57.725Z,16.08
2018-05-09T00:19:07.697Z,16.17
2018-05-09T00:20:17.415Z,16.13
2018-05-09T00:21:26.613Z,16.13
2018-05-09T00:22:36.585Z,16.12
2018-05-09T00:23:46.552Z,16.08
2018-05-09T00:24:56.276Z,16.1
2018-05-09T00:26:05.483Z,16.05
2018-05-09T00:27:15.475Z,16.05
2018-05-09T00:28:25.430Z,16.08
2018-05-09T00:29:35.392Z,16.03
2018-05-09T00:30:45.378Z,16.06
2018-05-09T00:31:55.349Z,16.05
2018-05-09T00:33:05.074Z,16.02
2018-05-09T00:34:14.788Z,16
2018-05-09T00:35:24.762Z,16.05
2018-05-09T00:36:34.737Z,16
2018-05-09T00:37:44.713Z,15.94
2018-05-09T00:38:54.703Z,16.02
2018-05-09T00:40:04.696Z,15.99
2018-05-09T00:41:14.415Z,16.02
2018-05-09T00:42:24.467Z,15.99
2018-05-09T00:43:34.441Z,15.98
2018-05-09T00:44:44.510Z,15.96
2018-05-09T00:45:54.213Z,15.9
2018-05-09T00:47:03.659Z,15.94
2018-05-09T00:48:13.372Z,15.91
2018-05-09T00:49:23.358Z,15.85
2018-05-09T00:50:33.073Z,15.9
2018-05-09T00:51:43.063Z,15.76
2018-05-09T00:52:53.082Z,15.76
2018-05-09T00:54:02.795Z,15.8
2018-05-09T00:55:12.502Z,15.78
2018-05-09T00:56:22.484Z,15.81
2018-05-09T00:57:32.458Z,15.78
2018-05-09T00:58:42.201Z,15.69
2018-05-09T00:59:52.186Z,15.72
2018-05-09T01:01:01.902Z,15.69
2018-05-09T01:02:11.888Z,15.76
2018-05-09T01:03:21.862Z,15.65
2018-05-09T01:04:31.836Z,15.65
2018-05-09T01:05:41.810Z,15.66
2018-05-09T01:06:51.791Z,15.6
2018-05-09T01:08:01.767Z,15.6
2018-05-09T01:09:11.831Z,15.59
2018-05-09T01:10:21.827Z,15.62
2018-05-09T01:11:31.800Z,15.57
2018-05-09T01:12:41.520Z,15.5
2018-05-09T01:13:51.245Z,15.47
2018-05-09T01:15:00.967Z,15.54
2018-05-09T01:16:10.667Z,15.48
2018-05-09T01:17:20.644Z,15.48
2018-05-09T01:18:30.365Z,15.54
2018-05-09T01:19:40.352Z,15.44
2018-05-09T01:20:50.320Z,15.55
2018-05-09T01:22:00.303Z,15.43
2018-05-09T01:23:10.365Z,15.35
2018-05-09T01:24:20.350Z,15.36
2018-05-09T01:25:30.065Z,15.37
2018-05-09T01:26:39.779Z,15.41
2018-05-09T01:27:49.229Z,15.37
2018-05-09T01:28:59.220Z,15.36
2018-05-09T01:30:09.212Z,15.43
2018-05-09T01:31:18.927Z,15.37
2018-05-09T01:32:28.676Z,15.39
2018-05-09T01:33:38.641Z,15.32
2018-05-09T01:34:48.625Z,15.3
2018-05-09T01:35:58.600Z,15.27
2018-05-09T01:37:08.317Z,15.3
2018-05-09T01:38:18.304Z,15.19
2018-05-09T01:39:28.279Z,15.3
2018-05-09T01:40:38.247Z,15.22
2018-05-09T01:41:48.222Z,15.18
2018-05-09T01:42:58.197Z,15.12
2018-05-09T01:44:08.185Z,15.19
2018-05-09T01:45:18.204Z,15.22
2018-05-09T01:46:27.926Z,15.17
2018-05-09T01:47:37.898Z,15.17
2018-05-09T01:48:47.680Z,15.17
2018-05-09T01:49:57.648Z,15.15
2018-05-09T01:51:07.621Z,15.18
2018-05-09T01:52:17.597Z,15.11
2018-05-09T01:53:27.546Z,15.14
2018-05-09T01:54:37.534Z,15.14
2018-05-09T01:55:47.502Z,15.07
2018-05-09T01:56:57.480Z,15.14
2018-05-09T01:58:07.454Z,15
2018-05-09T01:59:17.428Z,15.12
2018-05-09T02:00:27.140Z,15.1
2018-05-09T02:01:37.112Z,15
2018-05-09T02:02:46.833Z,15.05
2018-05-09T02:03:56.803Z,15.07
2018-05-09T02:05:06.786Z,15.02
2018-05-09T02:06:16.752Z,15.02
2018-05-09T02:07:26.193Z,15.04
2018-05-09T02:08:36.183Z,14.96
2018-05-09T02:09:45.897Z,15.04
2018-05-09T02:10:55.872Z,15
2018-05-09T02:12:05.593Z,14.99
2018-05-09T02:13:15.300Z,14.99
2018-05-09T02:14:25.357Z,14.99
2018-05-09T02:15:34.806Z,14.99
2018-05-09T02:16:44.798Z,14.97
2018-05-09T02:17:54.763Z,14.97
2018-05-09T02:19:04.479Z,14.93
2018-05-09T02:20:14.448Z,14.97
2018-05-09T02:21:24.161Z,14.99
2018-05-09T02:22:34.123Z,14.89
2018-05-09T02:23:43.850Z,14.87
2018-05-09T02:24:53.826Z,14.92
2018-05-09T02:26:03.625Z,14.9
2018-05-09T02:27:13.605Z,14.9
2018-05-09T02:28:23.331Z,14.89
2018-05-09T02:29:33.043Z,14.9
2018-05-09T02:30:43.019Z,14.89
2018-05-09T02:31:52.999Z,14.9
2018-05-09T02:33:02.996Z,14.87
2018-05-09T02:34:12.717Z,14.86
2018-05-09T02:35:22.435Z,14.82
2018-05-09T02:36:32.421Z,14.87
2018-05-09T02:37:42.389Z,14.81
2018-05-09T02:38:52.124Z,14.86
2018-05-09T02:40:02.102Z,14.82
2018-05-09T02:41:12.075Z,14.79
2018-05-09T02:42:22.072Z,14.86
2018-05-09T02:43:32.050Z,14.73
2018-05-09T02:44:42.139Z,14.77
2018-05-09T02:45:51.849Z,14.87
2018-05-09T02:47:01.306Z,14.82
2018-05-09T02:48:11.284Z,14.87
2018-05-09T02:49:20.788Z,14.81
2018-05-09T02:50:30.240Z,14.78
2018-05-09T02:51:40.235Z,14.77
2018-05-09T02:52:50.231Z,14.78
2018-05-09T02:53:59.937Z,14.79
2018-05-09T02:55:09.651Z,14.66
2018-05-09T02:56:19.642Z,14.77
2018-05-09T02:57:29.613Z,14.68
2018-05-09T02:58:39.616Z,14.61
2018-05-09T02:59:49.324Z,14.61
2018-05-09T03:00:59.366Z,14.66
2018-05-09T03:02:09.347Z,14.62
2018-05-09T03:03:19.071Z,14.59
2018-05-09T03:04:29.341Z,14.51
2018-05-09T03:05:39.317Z,14.52
2018-05-09T03:06:49.059Z,14.55
2018-05-09T03:07:59.047Z,14.58
2018-05-09T03:09:08.509Z,14.59
2018-05-09T03:10:18.485Z,14.53
2018-05-09T03:11:28.429Z,14.41
2018-05-09T03:12:38.148Z,14.49
2018-05-09T03:13:47.863Z,14.49
2018-05-09T03:14:57.830Z,14.48
2018-05-09T03:16:07.290Z,14.48
2018-05-09T03:17:17.250Z,14.4
2018-05-09T03:18:26.965Z,14.34
2018-05-09T03:19:36.920Z,14.33
2018-05-09T03:20:46.635Z,14.36
2018-05-09T03:21:56.346Z,14.37
2018-05-09T03:23:06.350Z,14.26
2018-05-09T03:24:16.103Z,14.28
2018-05-09T03:25:25.816Z,14.28
2018-05-09T03:26:35.777Z,14.28
2018-05-09T03:27:45.230Z,14.31
2018-05-09T03:28:54.962Z,14.22
2018-05-09T03:30:04.929Z,14.31
2018-05-09T03:31:14.910Z,14.25
2018-05-09T03:32:24.627Z,14.28
2018-05-09T03:33:34.340Z,14.25
2018-05-09T03:34:44.056Z,14.26
2018-05-09T03:35:54.029Z,14.33
2018-05-09T03:37:04.017Z,14.25
2018-05-09T03:38:13.486Z,14.34
2018-05-09T03:39:23.461Z,14.26
2018-05-09T03:40:33.439Z,14.23
2018-05-09T03:41:42.902Z,14.26
2018-05-09T03:42:52.626Z,14.23
2018-05-09T03:44:02.354Z,14.23
2018-05-09T03:45:12.341Z,14.28
2018-05-09T03:46:22.315Z,14.2
2018-05-09T03:47:32.284Z,14.31
2018-05-09T03:48:42.005Z,14.3
2018-05-09T03:49:51.732Z,14.3
2018-05-09T03:51:01.713Z,14.3
2018-05-09T03:52:11.704Z,14.33
2018-05-09T03:53:21.605Z,14.26
2018-05-09T03:54:31.444Z,14.26
2018-05-09T03:55:41.444Z,14.3
2018-05-09T03:56:51.160Z,14.28
2018-05-09T03:58:00.868Z,14.28
2018-05-09T03:59:10.830Z,14.31
2018-05-09T04:00:20.800Z,14.31
2018-05-09T04:01:30.762Z,14.36
2018-05-09T04:02:40.729Z,14.4
2018-05-09T04:03:50.711Z,14.45
2018-05-09T04:05:00.678Z,14.34
2018-05-09T04:06:10.396Z,14.52
2018-05-09T04:07:20.352Z,14.48
2018-05-09T04:08:29.807Z,14.48
2018-05-09T04:09:39.660Z,14.43
2018-05-09T04:10:49.654Z,14.48
2018-05-09T04:11:59.428Z,14.41
2018-05-09T04:13:09.587Z,14.44
2018-05-09T04:14:19.631Z,14.53
2018-05-09T04:15:29.601Z,14.56
2018-05-09T04:16:39.597Z,14.61
2018-05-09T04:17:49.611Z,14.51
2018-05-09T04:18:59.375Z,14.56
2018-05-09T04:20:09.355Z,14.62
2018-05-09T04:21:19.330Z,14.59
2018-05-09T04:22:29.294Z,14.66
2018-05-09T04:23:39.019Z,14.62
2018-05-09T04:24:48.725Z,14.63
2018-05-09T04:25:58.470Z,14.61
2018-05-09T04:27:08.440Z,14.71
2018-05-09T04:28:18.218Z,14.71
2018-05-09T04:29:28.202Z,14.77
2018-05-09T04:30:38.215Z,14.81
2018-05-09T04:31:48.189Z,14.7
2018-05-09T04:32:57.932Z,14.81
2018-05-09T04:34:07.639Z,14.89
2018-05-09T04:35:17.353Z,14.82
2018-05-09T04:36:27.319Z,14.9
2018-05-09T04:37:37.289Z,14.87
2018-05-09T04:38:47.271Z,14.89
2018-05-09T04:39:56.983Z,14.96
2018-05-09T04:41:06.969Z,14.92
2018-05-09T04:42:16.712Z,14.99
2018-05-09T04:43:26.929Z,15.02
2018-05-09T04:44:37.151Z,14.99
2018-05-09T04:45:47.226Z,14.96
2018-05-09T04:46:57.204Z,15.05
2018-05-09T04:48:06.934Z,15.12
2018-05-09T04:49:17.139Z,15.08
2018-05-09T04:50:27.148Z,15.11
2018-05-09T04:51:36.850Z,15.12
2018-05-09T04:52:46.563Z,15.15
2018-05-09T04:53:56.539Z,15.18
2018-05-09T04:55:06.508Z,15.14
2018-05-09T04:56:16.491Z,15.19
2018-05-09T04:57:26.454Z,15.19
2018-05-09T04:58:35.922Z,15.23
2018-05-09T04:59:45.893Z,15.25
2018-05-09T05:00:55.872Z,15.35
2018-05-09T05:02:05.844Z,15.36
2018-05-09T05:03:15.834Z,15.37
2018-05-09T05:04:25.819Z,15.43
2018-05-09T05:05:35.780Z,15.47
2018-05-09T05:06:45.487Z,15.51
2018-05-09T05:07:55.458Z,15.63
2018-05-09T05:09:05.444Z,15.57
2018-05-09T05:10:15.155Z,15.59
2018-05-09T05:11:25.155Z,15.63
2018-05-09T05:12:34.920Z,15.66
2018-05-09T05:13:44.375Z,15.69
2018-05-09T05:14:54.350Z,15.7
2018-05-09T05:16:04.325Z,15.8
2018-05-09T05:17:14.294Z,15.85
2018-05-09T05:18:24.283Z,15.9
2018-05-09T05:19:33.743Z,15.85
2018-05-09T05:20:43.725Z,15.9
2018-05-09T05:21:53.706Z,16.02
2018-05-09T05:23:03.413Z,16.06
2018-05-09T05:24:13.128Z,16.03
2018-05-09T05:25:22.882Z,16.06
2018-05-09T05:26:32.605Z,16.06
2018-05-09T05:27:42.061Z,16.1
2018-05-09T05:28:51.788Z,16.16
2018-05-09T05:30:01.765Z,16.18
2018-05-09T05:31:11.489Z,16.29
2018-05-09T05:32:21.463Z,16.25
2018-05-09T05:33:31.426Z,16.32
2018-05-09T05:34:41.410Z,16.32
2018-05-09T05:35:51.119Z,16.41
2018-05-09T05:37:01.137Z,16.39
2018-05-09T05:38:11.167Z,16.41
2018-05-09T05:39:21.203Z,16.44
2018-05-09T05:40:31.187Z,16.5
2018-05-09T05:41:40.650Z,16.5
2018-05-09T05:42:50.634Z,16.5
2018-05-09T05:44:00.088Z,16.66
2018-05-09T05:45:10.601Z,16.74
2018-05-09T05:46:21.031Z,16.69
2018-05-09T05:47:30.760Z,16.82
2018-05-09T05:48:40.492Z,16.84
2018-05-09T05:49:50.483Z,16.91
2018-05-09T05:50:59.967Z,16.95
2018-05-09T05:52:09.983Z,17.04
2018-05-09T05:53:19.998Z,17.02
2018-05-09T05:54:30.006Z,17.09
2018-05-09T05:55:40.160Z,17.1
2018-05-09T05:56:50.224Z,17.16
2018-05-09T05:58:00.085Z,17.2
2018-05-09T05:59:09.853Z,17.23
2018-05-09T06:00:19.443Z,17.37
2018-05-09T06:01:29.239Z,17.41
2018-05-09T06:02:39.218Z,17.49
2018-05-09T06:03:49.209Z,17.47
2018-05-09T06:04:59.193Z,17.66
2018-05-09T06:06:08.931Z,17.66
2018-05-09T06:07:18.923Z,17.66
2018-05-09T06:08:28.894Z,17.69
2018-05-09T06:09:38.879Z,17.76
2018-05-09T06:10:48.872Z,17.79
2018-05-09T06:11:58.876Z,17.84
2018-05-09T06:13:08.895Z,17.87
2018-05-09T06:14:18.940Z,17.91
2018-05-09T06:15:28.998Z,17.91
2018-05-09T06:16:38.732Z,18
2018-05-09T06:17:48.787Z,18.05
2018-05-09T06:18:58.794Z,18.06
2018-05-09T06:20:08.791Z,18.09
2018-05-09T06:21:18.545Z,18.05
2018-05-09T06:22:28.549Z,18.05
2018-05-09T06:23:38.308Z,18.08
2018-05-09T06:24:48.325Z,18.13
2018-05-09T06:25:58.359Z,18.16
2018-05-09T06:27:08.362Z,18.23
2018-05-09T06:28:18.367Z,18.24
2018-05-09T06:29:28.351Z,18.37
2018-05-09T06:30:37.857Z,18.36
2018-05-09T06:31:47.835Z,18.39
2018-05-09T06:32:57.687Z,18.43
2018-05-09T06:34:07.704Z,18.45
2018-05-09T06:35:17.708Z,18.51
2018-05-09T06:36:27.427Z,18.61
2018-05-09T06:37:37.470Z,18.74
2018-05-09T06:38:47.635Z,18.71
2018-05-09T06:39:57.592Z,18.79
2018-05-09T06:41:07.581Z,18.89
2018-05-09T06:42:17.804Z,18.88
2018-05-09T06:43:27.845Z,19.01
2018-05-09T06:44:37.587Z,19.07
2018-05-09T06:45:47.312Z,19.16
2018-05-09T06:46:57.054Z,19.12
2018-05-09T06:48:07.051Z,19.24
2018-05-09T06:49:17.024Z,19.24
2018-05-09T06:50:26.485Z,19.35
2018-05-09T06:51:36.226Z,19.37
2018-05-09T06:52:45.686Z,19.47
2018-05-09T06:53:55.667Z,19.49
2018-05-09T06:55:05.139Z,19.42
2018-05-09T06:56:15.128Z,19.59
2018-05-09T06:57:25.109Z,19.52
2018-05-09T06:58:34.835Z,19.59
2018-05-09T06:59:44.827Z,19.63
2018-05-09T07:00:54.884Z,19.7
2018-05-09T07:02:04.762Z,19.71
2018-05-09T07:03:14.518Z,19.85
2018-05-09T07:04:24.730Z,19.85
2018-05-09T07:05:34.462Z,19.93
2018-05-09T07:06:45.205Z,19.93
2018-05-09T07:07:55.037Z,19.99
2018-05-09T07:09:05.036Z,19.96
2018-05-09T07:10:14.771Z,20.1
2018-05-09T07:11:24.763Z,20.12
2018-05-09T07:12:35.149Z,20.11
2018-05-09T07:13:45.360Z,20.12
2018-05-09T07:14:55.358Z,20.12
2018-05-09T07:16:05.330Z,20.17
2018-05-09T07:17:15.315Z,20.18
2018-05-09T07:18:25.311Z,20.33
2018-05-09T07:19:35.057Z,20.3
2018-05-09T07:20:45.046Z,20.48
2018-05-09T07:21:55.013Z,20.48
2018-05-09T07:23:05.063Z,20.58
2018-05-09T07:24:15.172Z,20.66
2018-05-09T07:25:25.157Z,20.68
2018-05-09T07:26:35.154Z,20.74
2018-05-09T07:27:44.879Z,20.89
2018-05-09T07:28:54.851Z,20.93
2018-05-09T07:30:04.601Z,20.88
2018-05-09T07:31:14.586Z,21.05
2018-05-09T07:32:24.390Z,21.08
2018-05-09T07:33:34.458Z,21.08
2018-05-09T07:34:43.932Z,21.23
2018-05-09T07:35:53.659Z,21.25
2018-05-09T07:37:03.871Z,21.3
2018-05-09T07:38:14.092Z,21.26
2018-05-09T07:39:24.067Z,21.23
2018-05-09T07:40:34.030Z,21.37
2018-05-09T07:41:44.042Z,21.4
2018-05-09T07:42:54.024Z,21.43
2018-05-09T07:44:03.496Z,21.44
2018-05-09T07:45:13.484Z,21.58
2018-05-09T07:46:23.201Z,21.5
2018-05-09T07:47:32.983Z,21.66
2018-05-09T07:48:43.216Z,21.63
2018-05-09T07:49:53.215Z,21.77
2018-05-09T07:51:03.204Z,21.74
2018-05-09T07:52:13.198Z,21.85
2018-05-09T07:53:23.137Z,21.81
2018-05-09T07:54:32.872Z,21.89
2018-05-09T07:55:42.874Z,22.01
2018-05-09T07:56:52.645Z,22.1
2018-05-09T07:58:02.835Z,22.14
2018-05-09T07:59:12.834Z,22.28
2018-05-09T08:00:22.874Z,22.16
2018-05-09T08:01:32.887Z,22.31
2018-05-09T08:02:42.875Z,22.38
2018-05-09T08:03:52.886Z,22.41
2018-05-09T08:05:02.879Z,22.61
2018-05-09T08:06:12.750Z,22.68
2018-05-09T08:07:22.760Z,22.77
2018-05-09T08:08:32.505Z,22.81
2018-05-09T08:09:41.956Z,22.84
2018-05-09T08:10:51.932Z,22.89
2018-05-09T08:12:01.964Z,22.99
2018-05-09T08:13:12.006Z,23.02
2018-05-09T08:14:21.991Z,23.08
2018-05-09T08:15:31.719Z,23.1
2018-05-09T08:16:41.693Z,23.11
2018-05-09T08:17:51.681Z,23.26
2018-05-09T08:19:01.686Z,23.28
2018-05-09T08:20:11.679Z,23.44
2018-05-09T08:21:21.671Z,23.47
2018-05-09T08:22:31.678Z,23.47
2018-05-09T08:23:41.487Z,23.56
2018-05-09T08:24:51.563Z,23.62
2018-05-09T08:26:01.598Z,23.66
2018-05-09T08:27:11.595Z,23.74
2018-05-09T08:28:21.576Z,23.76
2018-05-09T08:29:31.576Z,23.86
2018-05-09T08:30:41.295Z,24.01
2018-05-09T08:31:50.754Z,24.14
2018-05-09T08:33:00.788Z,24.55
2018-05-09T08:34:10.782Z,24.74
2018-05-09T08:35:20.768Z,24.75
2018-05-09T08:36:30.847Z,24.89
2018-05-09T08:37:40.951Z,25.16
2018-05-09T08:38:50.688Z,25.44
2018-05-09T08:40:00.727Z,25.77
2018-05-09T08:41:10.718Z,25.81
2018-05-09T08:42:20.463Z,26.1
2018-05-09T08:43:30.908Z,26.18
2018-05-09T08:44:41.215Z,26.18
2018-05-09T08:45:50.710Z,26.44
2018-05-09T08:47:00.712Z,26.63
2018-05-09T08:48:10.530Z,26.73
2018-05-09T08:49:20.851Z,27.05
2018-05-09T08:50:31.114Z,27.19
2018-05-09T08:51:41.121Z,27.44
2018-05-09T08:52:51.180Z,27.71
2018-05-09T08:54:01.191Z,27.68
2018-05-09T08:55:11.214Z,27.93
2018-05-09T08:56:21.240Z,27.82
2018-05-09T08:57:31.451Z,27.71
2018-05-09T08:58:41.691Z,27.73
2018-05-09T08:59:51.549Z,27.95
2018-05-09T09:01:01.565Z,28.09
2018-05-09T09:02:11.320Z,28.23
2018-05-09T09:03:21.331Z,28.01
2018-05-09T09:04:31.818Z,28.27
2018-05-09T09:05:41.818Z,28.53
2018-05-09T09:06:51.561Z,28.75
2018-05-09T09:08:01.561Z,28.77
2018-05-09T09:09:11.571Z,28.87
2018-05-09T09:10:21.577Z,29.05
2018-05-09T09:11:31.582Z,29.03
2018-05-09T09:12:41.317Z,29.13
2018-05-09T09:13:51.042Z,29.22
2018-05-09T09:15:00.517Z,29.22
2018-05-09T09:16:10.276Z,29.42
2018-05-09T09:17:20.289Z,29.13
2018-05-09T09:18:30.124Z,28.89
2018-05-09T09:19:40.283Z,29.03
2018-05-09T09:20:50.335Z,28.53
2018-05-09T09:22:00.626Z,28.53
2018-05-09T09:23:10.616Z,28.75
2018-05-09T09:24:20.348Z,28.89
2018-05-09T09:25:30.364Z,28.68
2018-05-09T09:26:40.095Z,28.92
2018-05-09T09:27:49.834Z,29.03
2018-05-09T09:28:59.824Z,29.03
2018-05-09T09:30:09.618Z,28.94
2018-05-09T09:31:19.623Z,28.77
2018-05-09T09:32:29.607Z,28.72
2018-05-09T09:33:39.627Z,28.5
2018-05-09T09:34:49.366Z,28.57
2018-05-09T09:35:59.359Z,28.33
2018-05-09T09:37:09.366Z,28.27
2018-05-09T09:38:19.387Z,28.18
2018-05-09T09:39:29.426Z,28.23
2018-05-09T09:40:39.441Z,28.52
2018-05-09T09:41:49.458Z,28.77
2018-05-09T09:42:59.502Z,28.84
2018-05-09T09:44:09.510Z,28.97
2018-05-09T09:45:19.023Z,29.07
2018-05-09T09:46:29.075Z,28.89
2018-05-09T09:47:39.096Z,28.92
2018-05-09T09:48:49.113Z,29.12
2018-05-09T09:49:59.134Z,29.13
2018-05-09T09:51:09.124Z,29.2
2018-05-09T09:52:19.136Z,29.06
2018-05-09T09:53:29.136Z,29.07
2018-05-09T09:54:39.141Z,29.05
2018-05-09T09:55:49.149Z,28.96
2018-05-09T09:56:59.165Z,28.77
2018-05-09T09:58:09.190Z,28.75
2018-05-09T09:59:19.220Z,29
2018-05-09T10:00:28.963Z,29.42
2018-05-09T10:01:39.243Z,29.79
2018-05-09T10:02:49.339Z,30.11
2018-05-09T10:03:59.341Z,30.4
2018-05-09T10:05:09.344Z,30.44
2018-05-09T10:06:19.355Z,30.1
2018-05-09T10:07:29.356Z,30.08
2018-05-09T10:08:39.094Z,29.76
2018-05-09T10:09:49.105Z,29.53
2018-05-09T10:10:58.849Z,29.55
2018-05-09T10:12:08.874Z,29.59
2018-05-09T10:13:18.646Z,29.59
2018-05-09T10:14:28.656Z,29.79
2018-05-09T10:15:38.706Z,30.08
2018-05-09T10:16:48.736Z,30.03
2018-05-09T10:17:58.751Z,30.14
2018-05-09T10:19:08.493Z,30.39
2018-05-09T10:20:18.501Z,30.54
2018-05-09T10:21:28.515Z,30.62
2018-05-09T10:22:37.732Z,30.93
2018-05-09T10:23:47.752Z,31.44
2018-05-09T10:24:57.782Z,31.36
2018-05-09T10:26:07.786Z,31.26
2018-05-09T10:27:17.782Z,31.18
2018-05-09T10:28:27.819Z,31.15
2018-05-09T10:29:37.860Z,31.07
2018-05-09T10:30:47.858Z,30.78
2018-05-09T10:31:57.966Z,30.67
2018-05-09T10:33:08.142Z,30.83
2018-05-09T10:34:18.278Z,30.99
2018-05-09T10:35:28.287Z,31.14
2018-05-09T10:36:38.022Z,31.28
2018-05-09T10:37:47.763Z,31.3
2018-05-09T10:38:57.785Z,31.11
2018-05-09T10:40:07.804Z,31.33
2018-05-09T10:41:17.875Z,31.42
2018-05-09T10:42:27.942Z,31.59
2018-05-09T10:43:37.984Z,31.35
2018-05-09T10:44:48.009Z,31.15
2018-05-09T10:45:58.023Z,30.92
2018-05-09T10:47:08.068Z,30.99
2018-05-09T10:48:18.110Z,31.17
2018-05-09T10:49:28.125Z,31.44
2018-05-09T10:50:37.896Z,31.41
2018-05-09T10:51:48.049Z,31.77
2018-05-09T10:52:58.054Z,32
2018-05-09T10:54:07.820Z,31.5
2018-05-09T10:55:17.832Z,31.25
2018-05-09T10:56:27.598Z,31.04
2018-05-09T10:57:37.688Z,30.59
2018-05-09T10:58:47.226Z,30.31
2018-05-09T10:59:57.248Z,30.13
2018-05-09T11:01:07.364Z,30.23
2018-05-09T11:02:17.398Z,30.17
2018-05-09T11:03:27.439Z,30.48
2018-05-09T11:04:37.152Z,30.92
2018-05-09T11:05:47.142Z,31.22
2018-05-09T11:06:57.370Z,31.52
2018-05-09T11:08:07.381Z,31.63
2018-05-09T11:09:17.669Z,31.67
2018-05-09T11:10:27.842Z,31.39
2018-05-09T11:11:38.055Z,31.15
2018-05-09T11:12:48.063Z,31.2
2018-05-09T11:13:58.123Z,31.48
2018-05-09T11:15:08.238Z,31.39
2018-05-09T11:16:17.994Z,30.96
2018-05-09T11:17:28.044Z,30.62
2018-05-09T11:18:38.303Z,30.23
2018-05-09T11:19:48.058Z,30.06
2018-05-09T11:20:58.052Z,29.79
2018-05-09T11:22:07.785Z,29.55
2018-05-09T11:23:17.534Z,29.39
2018-05-09T11:24:27.665Z,29.39
2018-05-09T11:25:37.525Z,29.4
2018-05-09T11:26:47.010Z,29.57
2018-05-09T11:27:57.028Z,29.86
2018-05-09T11:29:07.032Z,30.26
2018-05-09T11:30:17.019Z,30.65
2018-05-09T11:31:27.006Z,30.78
2018-05-09T11:32:37.000Z,30.86
2018-05-09T11:33:47.007Z,30.99
2018-05-09T11:34:57.000Z,30.85
2018-05-09T11:36:06.991Z,30.74
2018-05-09T11:37:17.026Z,30.71
2018-05-09T11:38:27.238Z,30.88
2018-05-09T11:39:37.244Z,31.2
2018-05-09T11:40:47.263Z,31.39
2018-05-09T11:41:57.015Z,31.66
2018-05-09T11:43:06.778Z,31.72
2018-05-09T11:44:16.765Z,31.51
2018-05-09T11:45:26.498Z,31.37
2018-05-09T11:46:36.488Z,31.26
2018-05-09T11:47:46.234Z,31.14
2018-05-09T11:48:55.711Z,31.2
2018-05-09T11:50:05.451Z,31.26
2018-05-09T11:51:15.456Z,31.02
2018-05-09T11:52:25.194Z,30.77
2018-05-09T11:53:35.221Z,30.7
2018-05-09T11:54:45.480Z,30.59
2018-05-09T11:55:55.479Z,30.24
2018-05-09T11:57:05.487Z,29.9
2018-05-09T11:58:15.485Z,29.84
2018-05-09T11:59:25.224Z,29.62
2018-05-09T12:00:34.709Z,29.53
2018-05-09T12:01:44.530Z,29.53
2018-05-09T12:02:54.257Z,29.43
2018-05-09T12:04:04.238Z,29.47
2018-05-09T12:05:14.235Z,29.46
2018-05-09T12:06:23.972Z,29.71
2018-05-09T12:07:33.992Z,29.89
2018-05-09T12:08:43.985Z,30.29
2018-05-09T12:09:54.004Z,30.74
2018-05-09T12:11:04.034Z,30.77
2018-05-09T12:12:14.034Z,31
2018-05-09T12:13:24.036Z,31.11
2018-05-09T12:14:34.027Z,31.13
2018-05-09T12:15:44.051Z,30.96
2018-05-09T12:16:54.067Z,30.81
2018-05-09T12:18:03.818Z,30.83
2018-05-09T12:19:13.824Z,30.69
2018-05-09T12:20:23.817Z,30.11
2018-05-09T12:21:33.827Z,30.11
2018-05-09T12:22:43.820Z,30.23
2018-05-09T12:23:53.821Z,30.16
2018-05-09T12:25:03.302Z,30.1
2018-05-09T12:26:13.303Z,30.13
2018-05-09T12:27:23.296Z,29.87
2018-05-09T12:28:33.041Z,30.03
2018-05-09T12:29:43.149Z,30.26
2018-05-09T12:30:52.876Z,30.62
2018-05-09T12:32:02.614Z,30.98
2018-05-09T12:33:12.597Z,31.1
2018-05-09T12:34:22.327Z,31.3
2018-05-09T12:35:32.315Z,31.28
2018-05-09T12:36:42.311Z,30.61
2018-05-09T12:37:52.053Z,30.39
2018-05-09T12:39:02.114Z,30.17
2018-05-09T12:40:12.103Z,30.1
2018-05-09T12:41:22.118Z,30.14
2018-05-09T12:42:32.012Z,30.29
2018-05-09T12:43:42.036Z,30.44
2018-05-09T12:44:51.776Z,30.48
2018-05-09T12:46:01.788Z,30.63
2018-05-09T12:47:11.531Z,30.76
2018-05-09T12:48:21.091Z,30.63
2018-05-09T12:49:30.962Z,30.71
2018-05-09T12:50:40.948Z,30.78
2018-05-09T12:51:50.672Z,30.69
2018-05-09T12:53:00.411Z,30.31
2018-05-09T12:54:10.396Z,30.17
2018-05-09T12:55:20.383Z,30.24
2018-05-09T12:56:30.397Z,30.38
2018-05-09T12:57:40.402Z,30.38
2018-05-09T12:58:50.411Z,30.56
2018-05-09T13:00:00.417Z,30.61
2018-05-09T13:01:10.409Z,30.73
2018-05-09T13:02:20.418Z,30.71
2018-05-09T13:03:30.408Z,30.99
2018-05-09T13:04:40.394Z,31.1
2018-05-09T13:05:50.394Z,31.36
2018-05-09T13:07:00.388Z,31.35
2018-05-09T13:08:10.126Z,31.54
2018-05-09T13:09:20.106Z,31.82
2018-05-09T13:10:29.659Z,31.85
2018-05-09T13:11:39.651Z,31.63
2018-05-09T13:12:49.396Z,31.47
2018-05-09T13:13:59.394Z,31.23
2018-05-09T13:15:09.376Z,31.33
2018-05-09T13:16:19.369Z,31.11
2018-05-09T13:17:29.113Z,31.11
2018-05-09T13:18:38.322Z,30.98
2018-05-09T13:19:48.197Z,30.99
2018-05-09T13:20:58.485Z,30.89
2018-05-09T13:22:07.965Z,30.95
2018-05-09T13:23:17.447Z,30.88
2018-05-09T13:24:26.920Z,30.43
2018-05-09T13:25:36.678Z,29.94
2018-05-09T13:26:46.719Z,29.94
2018-05-09T13:27:56.515Z,29.92
2018-05-09T13:29:06.527Z,30.05
2018-05-09T13:30:16.759Z,29.96
2018-05-09T13:31:26.758Z,29.89
2018-05-09T13:32:36.752Z,30.38
2018-05-09T13:33:46.760Z,30.55
2018-05-09T13:34:56.505Z,30.54
2018-05-09T13:36:06.255Z,30.29
2018-05-09T13:37:15.989Z,29.9
2018-05-09T13:38:25.775Z,29.94
2018-05-09T13:39:35.259Z,29.62
2018-05-09T13:40:45.266Z,29.65
2018-05-09T13:41:55.272Z,29.79
2018-05-09T13:43:05.281Z,29.74
2018-05-09T13:44:15.282Z,29.89
2018-05-09T13:45:25.281Z,29.87
2018-05-09T13:46:35.289Z,29.89
2018-05-09T13:47:45.364Z,29.69
2018-05-09T13:48:55.120Z,29.44
2018-05-09T13:50:04.594Z,29.13
2018-05-09T13:51:14.598Z,29.12
2018-05-09T13:52:24.345Z,29.31
2018-05-09T13:53:34.093Z,29.46
2018-05-09T13:54:44.085Z,29.47
2018-05-09T13:55:53.813Z,29.39
2018-05-09T13:57:03.810Z,29.39
2018-05-09T13:58:13.542Z,29.55
2018-05-09T13:59:23.546Z,29.87
2018-05-09T14:00:33.568Z,29.98
2018-05-09T14:01:43.578Z,30.08
2018-05-09T14:02:53.596Z,30.05
2018-05-09T14:04:03.079Z,30.2
2018-05-09T14:05:13.087Z,30.44
2018-05-09T14:06:23.079Z,30.48
2018-05-09T14:07:33.091Z,30.67
2018-05-09T14:08:43.094Z,30.52
2018-05-09T14:09:53.379Z,30.59
2018-05-09T14:11:03.631Z,30.86
2018-05-09T14:12:12.847Z,30.99
2018-05-09T14:13:22.855Z,30.54
2018-05-09T14:14:32.877Z,30.14
2018-05-09T14:15:43.139Z,29.81
2018-05-09T14:16:53.140Z,29.83
2018-05-09T14:18:02.894Z,29.84
2018-05-09T14:19:12.900Z,29.84
2018-05-09T14:20:22.926Z,29.74
2018-05-09T14:21:32.924Z,29.68
2018-05-09T14:22:42.666Z,29.69
2018-05-09T14:23:52.421Z,29.83
2018-05-09T14:25:02.411Z,30.03
2018-05-09T14:26:12.178Z,30.23
2018-05-09T14:27:22.137Z,30.51
2018-05-09T14:28:31.872Z,30.83
2018-05-09T14:29:41.593Z,31.17
2018-05-09T14:30:51.320Z,31.5
2018-05-09T14:32:01.356Z,31.25
2018-05-09T14:33:11.468Z,31.42
2018-05-09T14:34:21.558Z,31.51
2018-05-09T14:35:31.549Z,31.74
2018-05-09T14:36:41.031Z,31.69
2018-05-09T14:37:51.030Z,31.52
2018-05-09T14:39:00.512Z,31.48
2018-05-09T14:40:10.493Z,31.17
2018-05-09T14:41:19.959Z,30.92
2018-05-09T14:42:29.935Z,30.7
2018-05-09T14:43:39.683Z,30.61
2018-05-09T14:44:49.425Z,30.38
2018-05-09T14:45:59.189Z,30.2
2018-05-09T14:47:08.916Z,30.08
2018-05-09T14:48:18.138Z,30.13
2018-05-09T14:49:28.141Z,30.36
2018-05-09T14:50:37.869Z,30.4
2018-05-09T14:51:47.358Z,30.31
2018-05-09T14:52:57.355Z,30.23
2018-05-09T14:54:07.358Z,30.14
2018-05-09T14:55:17.342Z,30.02
2018-05-09T14:56:27.087Z,29.89
2018-05-09T14:57:36.833Z,29.89
2018-05-09T14:58:46.816Z,30.16
2018-05-09T14:59:56.547Z,30.61
2018-05-09T15:01:06.307Z,30.86
2018-05-09T15:02:16.070Z,30.73
2018-05-09T15:03:26.074Z,30.48